EDDSEDJA

Guest
Details From EDDS - Stuttgart
To EDJA - MEMMINGEN ALLGAU
Flight Number -
Tags generated
Created
Modified
Stats Distance 59 nm / 108 km
Max Altitude 4,800 ft / 1,463 m
Waypoints 3
Social Downloads 0
Likes 0
Share VATSIM

Download

Looking for another format? Having issues loading an existing format? Contact us
Advertisement - Login to hide

Notes

Basic altitude profile: - Ascent Rate: 2500ft/min - Ascent Speed: 250kts - Cruise Altitude: 11000ft - Cruise Speed: 250kts - Descent Rate: 1500ft/min - Descent Speed: 250kts Options: - Use NATs: yes - Use PACOTS: yes - Use low airways: yes - Use high airways: yes

Route

EDDS SUDEN EDJA

ID Type Via Altitude Latitude Longitude Leg Dist Tot Dist Heading (true) Name
O EDDS APT - 0 ft / 0 m 48.68988˚ 9.22196˚ - 0 nm - Stuttgart
SUDEN FIX - 4,800 ft / 1,463 m 48.52917˚ 9.46222˚ 13 nm 13 nm 135° / 135° -
O EDJA APT - 0 ft / 0 m 47.98876˚ 10.23950˚ 44 nm 58 nm 136° / 137° MEMMINGEN ALLGAU

Altitude Profile

Advertisement - Login to hide

EDDS

Details ICAO EDDS (STR)
Name Stuttgart
Region Germany - Civil
Timezone Europe/Berlin (UTC+2.0)
Stats Elevation 1,273 ft / 388 m (AMSL)
Location 48.689876° 9.221962°
Runways 1
Magnetic Variation 2.578° E

METAR

EDDS 221050Z 03004KT 310V120 9999 FEW040CB SCT300 23/13 Q1012 NOSIG

Decode

TAF

TAF EDDS 220500Z 2206/2306 VRB03KT CAVOK BECMG 2209/2211 36005KT TEMPO 2212/2220 TSRA SCT035CB PROB30 TEMPO 2213/2218 01015G25KT 2000 TSRAGR SCT020 BKN030CB BECMG 2218/2220 VRB03KT PROB40 TEMPO 2300/2306 1200 TSRA BCFG SCT040CB

Decode

Departure Runways

ID Width Length Bearing (true) Bearing (mag) Surface Threshold Offset Overrun Length
07 148 ft / 45 m 10,950 ft / 3,337 m 73.96° 71.38° Concrete 981 ft / 299 m 157 ft / 48 m
25 148 ft / 45 m 10,950 ft / 3,337 m 253.99° 251.41° Concrete 0 ft / 0 m 157 ft / 48 m

EDJA

Details ICAO EDJA (FMM)
Name MEMMINGEN ALLGAU
Region Germany - Civil
Timezone Europe/Berlin (UTC+2.0)
Stats Elevation 2,077 ft / 633 m (AMSL)
Location 47.988757° 10.239502°
Runways 1
Magnetic Variation 2.825° E

METAR

EDJA 221050Z 04006KT 360V090 CAVOK 21/12 Q1013

Decode

TAF

Not found

Destination Runways

ID Width Length Bearing (true) Bearing (mag) Surface Threshold Offset Overrun Length
06 98 ft / 30 m 9,762 ft / 2,975 m 57.91° 55.09° Asphalt 953 ft / 290 m 0 ft / 0 m
24 98 ft / 30 m 9,762 ft / 2,975 m 237.94° 235.12° Asphalt 953 ft / 290 m 0 ft / 0 m

Approach Navaids

Runway Type Ident Frequency Range Bearing (true) Bearing (mag) Slope Elevation
24 Localiser IAMW 110.10 MHz 18 nm / 33 km 239.25° 236.43° - 0 ft / 0 m (AMSL)
24 Glidescope IAMW 110.10 MHz 18 nm / 33 km 237.44° 234.61° 3.00° 2,050 ft / 625 m (AMSL)
24 DME IAMW 110.10 MHz 25 nm / 46 km - - - 2,064 ft / 629 m (AMSL)

Popular Alternatives